Latham, IL (62543)

5:18 AM CDT on August 21, 2017 (GMT -0500)
South Side - Mt. Pulaski | | Change Station
Active Advisory: Special Statement

Elev 623 ft 40.00 °N, 89.29 °W | Updated 8 seconds ago

Partly Cloudy
Partly Cloudy
71.8 °F
Feels Like 71.8 °F
N
0.0
Wind Variable Wind from South
Gusts 0.0 mph

Today
High -- | Low -- °F
--% Chance of Precip.
Yesterday
High -- | Low -- °F
Precip. -- in
Pressure 30.07 in
Visibility 0.5 miles
Clouds Overcast 100 ft
Dew Point 71 °F
Humidity 97%
Rainfall 0.00 in
Snow Depth Not available.
6:14 AM 7:44 PM
Waning Crescent, 0% visible
METAR KAAA 210955Z AUTO 00000KT 1/2SM FG OVC001 21/21 A3007 RMK AO2 T02100210
Pressure 30.07 in
Visibility 0.5 miles
Clouds Overcast 100 ft
Dew Point 71 °F
Humidity 97%
Rainfall 0.00 in
Snow Depth Not available.
6:14 AM 7:44 PM
Waning Crescent, 0% visible
METAR KAAA 210955Z AUTO 00000KT 1/2SM FG OVC001 21/21 A3007 RMK AO2 T02100210

Get Your Daily Forecast Email!

Thanks for signing up!

Be on the lookout for a verification email in your inbox.

You'll start receiving severe weather alerts in your inbox..

×

10-Day Weather Forecast

Almanac

Astronomy

Aug. 21, 2017 Rise Set
Actual Time
Civil Twilight
Nautical Twilight
Astronomical Twilight
Moon
Length of Visible Light
Length of Day
Tomorrow will be .
, % of the Moon is Illuminated

Today's Extremes

State Highs State Lows

Community

WunderPhotos

Category 6

Welcome to Category 6. This is the collective home for Weather Underground's featured writeups by Dr. Jeff Masters (right), Bob Henson (left), Chris Burt, and other regular contributors.

Nearby

Air Quality

  Air Quality AQ Index Pollutant
Not available.

Snow Depth

Station Depth Elevation

Earthquake Activity

City Distance Mag. Time & Date
Minimum magnitude displayed is 2.5.

Coastal Water Temperatures

Place Temperature

Stations

Nearby Weather Stations

Station Location Temp. Windchill Dew Point Humidity Wind Precip. Elev Updated Type
                   

Watches & Warnings

Special Statement
Issued: 4:55 AM CDT Aug. 21, 2017 – National Weather Service

Patchy dense fog is possible early this morning. Visibility may
vary over short distances and could fall to below 1/2 mile at
times. Fog will dissipate by 8 a.M. Motorists should drive with
caution... use low beams... reduce speed... and allow extra room
between cars.


37


455 am CDT Mon Aug 21 2017

Patchy dense fog is possible early this morning. Visibility may
vary over short distances and could fall to below 1/2 mile at
times. Fog will dissipate by 8 a.M. Motorists should drive with
caution... use low beams... reduce speed... and allow extra room
between cars.


37